createdAt,value
2018-01-27T13:25:23.212Z,20.48
2018-01-27T13:27:51.661Z,26.85
2018-01-27T13:30:19.492Z,25.30
2018-01-27T13:32:47.197Z,23.52
2018-01-27T13:35:14.968Z,20.77
2018-01-27T13:37:41.919Z,23.70
2018-01-27T13:40:08.876Z,15.07
2018-01-27T13:42:35.856Z,20.90
2018-01-27T13:45:03.574Z,20.73
2018-01-27T13:47:30.532Z,20.80
2018-01-27T13:49:57.488Z,22.42
2018-01-27T13:52:27.141Z,14.55
2018-01-27T13:54:54.117Z,14.48
2018-01-27T13:57:21.057Z,13.82
2018-01-27T13:59:49.072Z,18.70
2018-01-27T14:02:16.027Z,14.50
2018-01-27T14:04:42.985Z,12.48
2018-01-27T14:07:10.532Z,9.23
2018-01-27T14:09:37.508Z,14.60
2018-01-27T14:12:05.439Z,11.77
2018-01-27T14:14:33.147Z,11.38
2018-01-27T14:17:00.079Z,12.43
2018-01-27T14:19:27.079Z,17.62
2018-01-27T14:21:57.637Z,12.85
2018-01-27T14:24:24.581Z,15.20
2018-01-27T14:26:51.493Z,18.67
2018-01-27T14:29:19.193Z,13.38
2018-01-27T14:31:46.099Z,13.30
2018-01-27T14:34:13.023Z,12.75
2018-01-27T14:36:39.928Z,11.32
2018-01-27T14:39:06.872Z,12.70
2018-01-27T14:41:34.703Z,12.95
2018-01-27T14:44:03.409Z,9.57
2018-01-27T14:46:30.307Z,12.60
2018-01-27T14:48:57.239Z,12.27
2018-01-27T14:51:24.135Z,11.82
2018-01-27T14:53:51.059Z,10.98
2018-01-27T14:56:17.965Z,16.27
2018-01-27T14:58:44.899Z,11.30
2018-01-27T15:01:12.812Z,12.93
2018-01-27T15:03:39.731Z,11.55
2018-01-27T15:06:06.638Z,9.18
2018-01-27T15:08:33.568Z,12.35
2018-01-27T15:11:01.245Z,13.38
2018-01-27T15:13:28.171Z,13.07
2018-01-27T15:15:55.845Z,12.57
2018-01-27T15:18:22.776Z,11.88
2018-01-27T15:20:51.358Z,12.23
2018-01-27T15:23:19.065Z,15.15
2018-01-27T15:25:45.968Z,17.80
2018-01-27T15:28:13.677Z,14.35
2018-01-27T15:30:40.583Z,14.70
2018-01-27T15:33:07.487Z,14.23
2018-01-27T15:35:34.449Z,12.52
2018-01-27T15:38:02.128Z,19.90
2018-01-27T15:40:29.051Z,15.82
2018-01-27T15:42:55.951Z,28.98
2018-01-27T15:45:22.889Z,18.98
2018-01-27T15:47:49.804Z,12.43
2018-01-27T15:50:16.749Z,14.35
2018-01-27T15:52:44.430Z,15.18
2018-01-27T15:55:12.297Z,17.45
2018-01-27T15:57:40.149Z,15.70
2018-01-27T16:00:10.832Z,16.17
2018-01-27T16:02:38.648Z,17.35
2018-01-27T16:05:06.515Z,20.60
2018-01-27T16:07:35.380Z,28.02
2018-01-27T16:10:03.286Z,21.50
2018-01-27T16:12:31.165Z,17.05
2018-01-27T16:14:58.084Z,20.83
2018-01-27T16:17:25.928Z,19.05
2018-01-27T16:19:53.627Z,22.42
2018-01-27T16:22:20.541Z,19.42
2018-01-27T16:24:48.265Z,31.35
2018-01-27T16:27:15.238Z,27.60
2018-01-27T16:29:42.941Z,23.65
2018-01-27T16:32:09.848Z,31.67
2018-01-27T16:34:37.550Z,21.50
2018-01-27T16:37:04.458Z,24.35
2018-01-27T16:39:32.157Z,29.67
2018-01-27T16:41:59.073Z,24.37
2018-01-27T16:44:26.771Z,26.85
2018-01-27T16:46:53.687Z,24.33
2018-01-27T16:49:21.529Z,23.00
2018-01-27T16:51:49.198Z,27.48
2018-01-27T16:54:16.201Z,25.83
2018-01-27T16:56:43.120Z,25.55
2018-01-27T16:59:10.068Z,32.00
2018-01-27T17:01:37.015Z,35.28
2018-01-27T17:04:03.928Z,29.45
2018-01-27T17:06:32.815Z,34.95
2018-01-27T17:09:00.676Z,34.55
2018-01-27T17:11:27.606Z,30.37
2018-01-27T17:13:55.299Z,35.45
2018-01-27T17:16:23.228Z,32.42
2018-01-27T17:18:50.951Z,32.08
2018-01-27T17:21:17.895Z,34.88
2018-01-27T17:23:48.702Z,40.72
2018-01-27T17:26:15.631Z,34.40
2018-01-27T17:28:43.483Z,32.97
2018-01-27T17:31:12.215Z,36.78
2018-01-27T17:33:39.125Z,36.15
2018-01-27T17:36:06.062Z,39.33
2018-01-27T17:38:32.989Z,38.47
2018-01-27T17:41:00.704Z,31.08
2018-01-27T17:43:28.620Z,40.17
2018-01-27T17:45:56.329Z,38.20
2018-01-27T17:48:27.144Z,41.40
2018-01-27T17:50:54.075Z,38.58
2018-01-27T17:53:22.747Z,37.30
2018-01-27T17:55:50.460Z,47.55
2018-01-27T17:58:17.368Z,43.30
2018-01-27T18:00:47.090Z,43.05
2018-01-27T18:03:14.026Z,44.58
2018-01-27T18:05:41.896Z,38.67
2018-01-27T18:08:08.818Z,41.17
2018-01-27T18:10:36.524Z,46.22
2018-01-27T18:13:03.431Z,45.58
2018-01-27T18:15:31.327Z,38.15
2018-01-27T18:17:58.255Z,36.00
2018-01-27T18:20:26.160Z,41.67
2018-01-27T18:22:53.085Z,41.72
2018-01-27T18:25:20.029Z,45.75
2018-01-27T18:27:46.942Z,41.37
2018-01-27T18:30:14.658Z,42.08
2018-01-27T18:32:41.571Z,41.05
2018-01-27T18:35:08.499Z,45.00
2018-01-27T18:37:37.096Z,47.78
2018-01-27T18:40:04.039Z,44.38
2018-01-27T18:42:30.988Z,45.33
2018-01-27T18:44:58.843Z,42.15
2018-01-27T18:47:26.732Z,43.47
2018-01-27T18:49:53.669Z,43.95
2018-01-27T18:52:20.586Z,34.08
2018-01-27T18:54:49.333Z,44.75
2018-01-27T18:57:17.240Z,39.95
2018-01-27T18:59:44.179Z,40.92
2018-01-27T19:02:11.865Z,37.22
2018-01-27T19:04:38.792Z,50.22
2018-01-27T19:07:06.463Z,47.55
2018-01-27T19:09:33.411Z,59.80
2018-01-27T19:12:01.087Z,49.75
2018-01-27T19:14:29.993Z,46.83
2018-01-27T19:16:56.911Z,50.10
2018-01-27T19:19:24.800Z,54.10
2018-01-27T19:21:51.725Z,52.30
2018-01-27T19:24:18.662Z,61.53
2018-01-27T19:26:48.809Z,56.85
2018-01-27T19:29:15.754Z,45.63
2018-01-27T19:31:45.841Z,51.35
2018-01-27T19:34:16.360Z,62.25
2018-01-27T19:36:43.299Z,55.10
2018-01-27T19:39:10.270Z,59.08
2018-01-27T19:41:37.193Z,56.75
2018-01-27T19:44:04.896Z,56.35
2018-01-27T19:46:32.834Z,53.13
2018-01-27T19:48:59.784Z,55.40
2018-01-27T19:51:26.703Z,58.72
2018-01-27T19:53:54.435Z,61.15
2018-01-27T19:56:21.361Z,60.58
2018-01-27T19:58:49.224Z,58.08
2018-01-27T20:01:19.639Z,56.05
2018-01-27T20:03:46.573Z,55.63
2018-01-27T20:06:13.484Z,59.97
2018-01-27T20:08:40.419Z,53.97
2018-01-27T20:11:07.333Z,59.38
2018-01-27T20:13:34.268Z,64.32
2018-01-27T20:16:01.192Z,64.50
2018-01-27T20:18:28.905Z,69.45
2018-01-27T20:20:55.808Z,64.15
2018-01-27T20:23:23.667Z,69.10
2018-01-27T20:25:50.615Z,60.33
2018-01-27T20:28:17.573Z,62.65
2018-01-27T20:30:44.526Z,68.12
2018-01-27T20:33:11.473Z,63.55
2018-01-27T20:35:38.388Z,79.62
2018-01-27T20:38:05.337Z,70.43
2018-01-27T20:40:33.200Z,51.28
2018-01-27T20:43:01.141Z,73.55
2018-01-27T20:45:30.775Z,69.53
2018-01-27T20:47:59.631Z,69.55
2018-01-27T20:50:26.589Z,60.83
2018-01-27T20:52:53.556Z,73.90
2018-01-27T20:55:20.504Z,68.90
2018-01-27T20:57:47.415Z,62.70
2018-01-27T21:00:14.354Z,55.85
2018-01-27T21:02:41.283Z,67.97
2018-01-27T21:05:08.203Z,69.00
2018-01-27T21:07:35.136Z,62.88
2018-01-27T21:10:04.016Z,58.55
2018-01-27T21:12:30.949Z,63.67
2018-01-27T21:14:59.627Z,64.35
2018-01-27T21:17:27.320Z,53.55
2018-01-27T21:19:55.186Z,62.22
2018-01-27T21:22:22.123Z,42.35
2018-01-27T21:24:49.089Z,69.45
2018-01-27T21:27:16.033Z,49.80
2018-01-27T21:29:43.905Z,72.32
2018-01-27T21:32:10.835Z,64.43
2018-01-27T21:34:37.774Z,54.88
2018-01-27T21:37:05.609Z,60.60
2018-01-27T21:39:33.509Z,67.35
2018-01-27T21:42:01.440Z,62.83
2018-01-27T21:44:29.157Z,60.08
2018-01-27T21:46:56.068Z,56.22
2018-01-27T21:49:26.243Z,67.10
2018-01-27T21:51:53.204Z,57.45
2018-01-27T21:54:20.164Z,73.93
2018-01-27T21:56:47.901Z,56.53
2018-01-27T21:59:15.840Z,56.83
2018-01-27T22:01:42.781Z,58.28
2018-01-27T22:04:09.727Z,51.47
2018-01-27T22:06:36.651Z,62.03
2018-01-27T22:09:03.664Z,57.78
2018-01-27T22:11:30.575Z,61.47
2018-01-27T22:13:58.528Z,58.72
2018-01-27T22:16:26.452Z,54.63
2018-01-27T22:18:56.674Z,38.28
2018-01-27T22:21:24.356Z,47.05
2018-01-27T22:23:51.305Z,47.55
2018-01-27T22:26:18.229Z,46.65
2018-01-27T22:28:45.935Z,36.10
2018-01-27T22:31:12.846Z,45.20
2018-01-27T22:33:40.544Z,42.95
2018-01-27T22:36:07.468Z,36.35
2018-01-27T22:38:34.426Z,31.73
2018-01-27T22:41:02.357Z,33.53
2018-01-27T22:43:31.060Z,23.17
2018-01-27T22:45:57.972Z,29.17
2018-01-27T22:48:24.917Z,28.98
2018-01-27T22:50:51.833Z,24.90
2018-01-27T22:53:18.784Z,23.87
2018-01-27T22:55:45.715Z,24.50
2018-01-27T22:58:12.660Z,22.62
2018-01-27T23:00:41.501Z,23.42
2018-01-27T23:03:10.217Z,19.20
2018-01-27T23:05:38.059Z,20.58
2018-01-27T23:08:05.760Z,17.65
2018-01-27T23:10:32.654Z,23.95
2018-01-27T23:12:59.592Z,16.75
2018-01-27T23:15:26.491Z,22.77
2018-01-27T23:17:54.309Z,15.80
2018-01-27T23:20:21.238Z,18.52
2018-01-27T23:22:48.142Z,15.45
2018-01-27T23:25:15.068Z,12.65
2018-01-27T23:27:41.979Z,15.73
2018-01-27T23:30:08.926Z,16.62
2018-01-27T23:32:36.642Z,16.42
2018-01-27T23:35:03.579Z,17.10
2018-01-27T23:37:30.484Z,14.52
2018-01-27T23:39:58.188Z,10.95
2018-01-27T23:42:25.121Z,19.73
2018-01-27T23:44:52.967Z,12.80
2018-01-27T23:47:19.912Z,7.70
2018-01-27T23:49:46.890Z,17.98
2018-01-27T23:52:14.984Z,23.77
2018-01-27T23:54:43.933Z,13.48
2018-01-27T23:57:10.840Z,10.98
2018-01-27T23:59:38.677Z,13.57
